Time;durP1;ratioP1;P1;durP2;ratioP2;P2;SDS_P1;SDS_P2;PMS_P1;PMS_P2;Temp;Humidity;BMP_temperature;BMP_pressure;BME280_temperature;BME280_humidity;BME280_pressure;Samples;Min_cycle;Max_cycle;Signal;HPM_P1;HPM_P2
2022/08/25 00:00:11;;;;;;;;;;;21.30;93.30;;;;;;5079746;28;19924;-82
2022/08/25 00:02:37;;;;;;;;;;;21.30;93.40;;;;;;5064515;28;19925;-83
2022/08/25 00:05:05;;;;;;;;;;;21.30;93.60;;;;;;5070052;28;19928;-82
2022/08/25 00:07:32;;;;;;;;;;;21.30;93.70;;;;;;5070938;28;19924;-82
2022/08/25 00:09:59;;;;;;;;;;;21.20;93.80;;;;;;5067629;28;20617;-82
2022/08/25 00:12:26;;;;;;;;;;;21.20;94.20;;;;;;5088108;28;19924;-82
2022/08/25 00:14:53;;;;;;;;;;;21.10;93.70;;;;;;5079883;28;19932;-83
2022/08/25 00:17:22;;;;;;;;;;;21.00;93.30;;;;;;5079328;28;19924;-83
2022/08/25 00:19:49;;;;;;;;;;;21.00;94.30;;;;;;5073405;28;20042;-84
2022/08/25 00:22:16;;;;;;;;;;;21.00;94.50;;;;;;5073110;28;19928;-83
2022/08/25 00:24:43;;;;;;;;;;;21.00;94.70;;;;;;5073262;28;20058;-83
2022/08/25 00:27:11;;;;;;;;;;;20.90;94.80;;;;;;5071853;28;19991;-83
2022/08/25 00:29:37;;;;;;;;;;;20.80;94.90;;;;;;5073789;28;19928;-84
2022/08/25 00:32:05;;;;;;;;;;;20.80;95.00;;;;;;5073448;28;19929;-84
2022/08/25 00:34:34;;;;;;;;;;;20.70;95.20;;;;;;5081821;28;20432;-85
2022/08/25 00:37:03;;;;;;;;;;;20.70;95.40;;;;;;5074623;28;19928;-84
2022/08/25 00:39:30;;;;;;;;;;;20.60;95.40;;;;;;5086872;28;19951;-83
2022/08/25 00:41:57;;;;;;;;;;;20.50;94.80;;;;;;5078152;28;20015;-84
2022/08/25 00:44:25;;;;;;;;;;;20.50;95.60;;;;;;5075926;28;19924;-84
2022/08/25 00:46:53;;;;;;;;;;;20.40;95.30;;;;;;5075120;28;20357;-83
2022/08/25 00:49:24;;;;;;;;;;;20.40;96.00;;;;;;5073441;28;19928;-82
2022/08/25 00:51:53;;;;;;;;;;;20.40;96.10;;;;;;5073147;28;19985;-82
2022/08/25 00:54:23;;;;;;;;;;;20.30;96.20;;;;;;5070767;28;19934;-83
2022/08/25 00:56:51;;;;;;;;;;;20.20;95.80;;;;;;5071327;28;19928;-82
2022/08/25 00:59:19;;;;;;;;;;;20.20;96.30;;;;;;5073267;28;19929;-82
2022/08/25 01:01:46;;;;;;;;;;;20.10;96.20;;;;;;5082600;28;19928;-83
2022/08/25 01:04:13;;;;;;;;;;;20.10;96.60;;;;;;5071350;28;20456;-85
2022/08/25 01:06:44;;;;;;;;;;;20.00;95.80;;;;;;5074715;28;19928;-83
2022/08/25 01:09:18;;;;;;;;;;;20.00;96.80;;;;;;5075107;28;19924;-84
2022/08/25 01:11:59;;;;;;;;;;;19.90;96.90;;;;;;5071160;28;19928;-82
2022/08/25 01:14:32;;;;;;;;;;;19.80;96.20;;;;;;5073213;28;19950;-83
2022/08/25 01:17:12;;;;;;;;;;;19.80;97.10;;;;;;5068885;28;20058;-84
2022/08/25 01:19:46;;;;;;;;;;;19.80;97.30;;;;;;5070872;28;20568;-82
2022/08/25 01:22:16;;;;;;;;;;;19.80;97.40;;;;;;5072973;28;19999;-82
2022/08/25 01:24:54;;;;;;;;;;;19.80;97.70;;;;;;5074389;28;19928;-82
2022/08/25 01:27:37;;;;;;;;;;;19.70;97.90;;;;;;5067384;28;19997;-83
2022/08/25 01:30:11;;;;;;;;;;;19.70;98.00;;;;;;5071969;28;20006;-82
2022/08/25 01:32:44;;;;;;;;;;;19.70;98.10;;;;;;5071936;28;20342;-83
2022/08/25 01:35:19;;;;;;;;;;;19.60;98.20;;;;;;5072732;28;19950;-82
2022/08/25 01:37:50;;;;;;;;;;;19.60;98.30;;;;;;5088137;28;19924;-82
2022/08/25 01:40:19;;;;;;;;;;;19.60;98.40;;;;;;5070908;28;19978;-82
2022/08/25 01:42:57;;;;;;;;;;;19.50;98.20;;;;;;5070959;28;19932;-81
2022/08/25 01:45:31;;;;;;;;;;;19.50;98.50;;;;;;5071852;28;19940;-81
2022/08/25 01:48:01;;;;;;;;;;;19.50;98.70;;;;;;5072509;28;19928;-82
2022/08/25 01:50:42;;;;;;;;;;;19.50;98.70;;;;;;5073359;28;19944;-82
2022/08/25 01:53:18;;;;;;;;;;;19.40;98.70;;;;;;5070368;28;20173;-83
2022/08/25 01:56:00;;;;;;;;;;;19.40;98.70;;;;;;5072980;28;20315;-84
2022/08/25 01:58:48;;;;;;;;;;;19.40;98.80;;;;;;5071970;28;19981;-83
2022/08/25 02:01:19;;;;;;;;;;;19.40;99.00;;;;;;5071468;28;19928;-83
2022/08/25 02:03:48;;;;;;;;;;;19.30;99.10;;;;;;5071295;28;19924;-83
2022/08/25 02:06:20;;;;;;;;;;;19.30;99.30;;;;;;5071021;28;19978;-82
2022/08/25 02:08:55;;;;;;;;;;;19.20;99.50;;;;;;5070224;28;19932;-82
2022/08/25 02:11:34;;;;;;;;;;;19.10;99.20;;;;;;5073918;28;19932;-83
2022/08/25 02:14:04;;;;;;;;;;;19.10;99.20;;;;;;5075039;28;19928;-83
2022/08/25 02:16:39;;;;;;;;;;;19.10;99.90;;;;;;5075893;28;19979;-82
2022/08/25 02:19:15;;;;;;;;;;;19.10;99.90;;;;;;5075244;28;19924;-83
2022/08/25 02:21:43;;;;;;;;;;;19.00;99.90;;;;;;5074228;28;19954;-82
2022/08/25 02:24:21;;;;;;;;;;;19.00;99.90;;;;;;5076544;28;19982;-82
2022/08/25 02:26:58;;;;;;;;;;;18.90;99.90;;;;;;5074406;28;19936;-83
2022/08/25 02:29:31;;;;;;;;;;;18.90;99.90;;;;;;5079293;28;19928;-83
2022/08/25 02:31:58;;;;;;;;;;;17.70;99.90;;;;;;5074850;28;19974;-82
2022/08/25 02:34:29;;;;;;;;;;;18.80;99.90;;;;;;5074615;28;20391;-82
2022/08/25 02:37:07;;;;;;;;;;;18.80;99.90;;;;;;5075483;28;20304;-82
2022/08/25 02:39:44;;;;;;;;;;;18.80;99.90;;;;;;5074773;28;19989;-82
2022/08/25 02:42:15;;;;;;;;;;;18.70;99.90;;;;;;5075455;28;19924;-82
2022/08/25 02:44:46;;;;;;;;;;;18.70;99.90;;;;;;5075726;28;19928;-82
2022/08/25 02:47:22;;;;;;;;;;;18.70;99.90;;;;;;5075210;28;20031;-82
2022/08/25 02:49:57;;;;;;;;;;;18.60;99.90;;;;;;5076296;28;19928;-83
2022/08/25 02:52:26;;;;;;;;;;;18.60;99.90;;;;;;5078325;28;19993;-83
2022/08/25 02:55:04;;;;;;;;;;;18.50;99.90;;;;;;5074275;28;20013;-83
2022/08/25 02:57:40;;;;;;;;;;;18.50;99.90;;;;;;5070908;28;20384;-82
2022/08/25 03:00:15;;;;;;;;;;;18.50;99.90;;;;;;5074102;28;19990;-83
2022/08/25 03:02:47;;;;;;;;;;;18.50;99.90;;;;;;5070072;28;19972;-83
2022/08/25 03:05:20;;;;;;;;;;;18.40;99.90;;;;;;5076432;28;19924;-83
2022/08/25 03:08:12;;;;;;;;;;;18.40;99.90;;;;;;5075202;28;20451;-82
2022/08/25 03:11:00;;;;;;;;;;;19.20;99.90;;;;;;5074809;28;20022;-83
2022/08/25 03:13:42;;;;;;;;;;;18.30;99.90;;;;;;5075621;28;19924;-82
2022/08/25 03:16:20;;;;;;;;;;;18.30;99.90;;;;;;5074300;28;19929;-82
2022/08/25 03:18:53;;;;;;;;;;;18.20;99.90;;;;;;5075011;28;20431;-83
2022/08/25 03:21:23;;;;;;;;;;;18.20;99.90;;;;;;5074684;28;19929;-84
2022/08/25 03:23:54;;;;;;;;;;;18.10;99.90;;;;;;5073960;28;19932;-84
2022/08/25 03:29:21;;;;;;;;;;;18.10;99.90;;;;;;5075789;28;19928;-83
2022/08/25 03:31:48;;;;;;;;;;;18.10;99.90;;;;;;5073498;28;19928;-84
2022/08/25 03:34:24;;;;;;;;;;;18.00;99.90;;;;;;5071629;28;20402;-84
2022/08/25 03:36:55;;;;;;;;;;;18.00;99.90;;;;;;5074532;28;19932;-83
2022/08/25 03:39:25;;;;;;;;;;;18.00;99.90;;;;;;5073751;28;20638;-84
2022/08/25 03:41:54;;;;;;;;;;;17.90;99.90;;;;;;5072472;28;19936;-83
2022/08/25 03:44:32;;;;;;;;;;;17.90;99.90;;;;;;5071842;28;19929;-83
2022/08/25 03:47:06;;;;;;;;;;;17.80;99.90;;;;;;5071501;28;19929;-83
2022/08/25 03:49:38;;;;;;;;;;;17.80;99.90;;;;;;5081434;28;19950;-83
2022/08/25 03:52:09;;;;;;;;;;;17.80;99.90;;;;;;5076201;28;19935;-84
2022/08/25 03:54:45;;;;;;;;;;;17.70;99.90;;;;;;5072316;28;20392;-84
2022/08/25 03:57:17;;;;;;;;;;;17.70;99.90;;;;;;5069134;28;20029;-83
2022/08/25 03:59:54;;;;;;;;;;;17.60;99.90;;;;;;5071224;28;19993;-84
2022/08/25 04:02:25;;;;;;;;;;;17.70;99.90;;;;;;5087694;28;19928;-84
2022/08/25 04:04:56;;;;;;;;;;;17.60;99.90;;;;;;5072947;28;19975;-84
2022/08/25 04:07:30;;;;;;;;;;;17.60;99.90;;;;;;5059178;28;19956;-84
2022/08/25 04:10:01;;;;;;;;;;;17.50;99.90;;;;;;5065846;28;19929;-83
2022/08/25 04:12:51;;;;;;;;;;;17.50;99.90;;;;;;5071855;28;20011;-84
2022/08/25 04:15:36;;;;;;;;;;;17.50;99.90;;;;;;5061948;28;20600;-84
2022/08/25 04:18:03;;;;;;;;;;;17.40;99.90;;;;;;5073731;28;19933;-84
2022/08/25 04:20:36;;;;;;;;;;;17.50;99.90;;;;;;5071893;28;19924;-84
2022/08/25 04:23:06;;;;;;;;;;;17.40;99.90;;;;;;5077550;28;20166;-84
2022/08/25 04:25:43;;;;;;;;;;;17.40;99.90;;;;;;5071604;28;19929;-84
2022/08/25 04:28:14;;;;;;;;;;;17.40;99.90;;;;;;5047145;28;19928;-84
2022/08/25 04:30:58;;;;;;;;;;;17.40;99.90;;;;;;5076170;28;20109;-84
2022/08/25 04:33:41;;;;;;;;;;;17.40;99.90;;;;;;5062597;28;19936;-83
2022/08/25 04:36:12;;;;;;;;;;;17.40;99.90;;;;;;5077191;28;19929;-86
2022/08/25 04:38:42;;;;;;;;;;;17.40;99.90;;;;;;5074164;28;19964;-83
2022/08/25 04:41:17;;;;;;;;;;;17.30;99.90;;;;;;5073449;28;20042;-84
2022/08/25 04:43:46;;;;;;;;;;;17.40;99.90;;;;;;5075314;28;20374;-84
2022/08/25 04:46:26;;;;;;;;;;;17.40;99.90;;;;;;5074837;28;19975;-85
2022/08/25 04:48:55;;;;;;;;;;;17.40;99.90;;;;;;5073741;28;19928;-85
2022/08/25 04:51:34;;;;;;;;;;;17.30;99.90;;;;;;5073767;28;19951;-84
2022/08/25 04:54:07;;;;;;;;;;;17.30;99.90;;;;;;5072818;28;19928;-86
2022/08/25 04:56:42;;;;;;;;;;;17.40;99.90;;;;;;5073812;28;19928;-85
2022/08/25 04:59:12;;;;;;;;;;;17.40;99.90;;;;;;5074020;28;20355;-84
2022/08/25 05:01:40;;;;;;;;;;;17.40;99.90;;;;;;5071989;28;19991;-80
2022/08/25 05:04:08;;;;;;;;;;;17.40;99.90;;;;;;5066943;28;19928;-80
2022/08/25 05:06:36;;;;;;;;;;;17.40;99.90;;;;;;5065368;28;19978;-79
2022/08/25 05:09:03;;;;;;;;;;;17.40;99.90;;;;;;5066903;28;19929;-80
2022/08/25 05:11:31;;;;;;;;;;;17.50;99.90;;;;;;5066957;28;20265;-79
2022/08/25 05:14:00;;;;;;;;;;;17.50;99.90;;;;;;5073778;28;20327;-80
2022/08/25 05:16:29;;;;;;;;;;;17.60;99.90;;;;;;5069364;28;19935;-79
2022/08/25 05:18:56;;;;;;;;;;;17.60;99.90;;;;;;5069929;28;19975;-83
2022/08/25 05:21:23;;;;;;;;;;;17.60;99.90;;;;;;5071446;28;19928;-81
2022/08/25 05:23:50;;;;;;;;;;;17.70;99.90;;;;;;5071094;28;19974;-82
2022/08/25 05:26:18;;;;;;;;;;;17.80;99.90;;;;;;5084958;28;19939;-81
2022/08/25 05:28:46;;;;;;;;;;;17.90;99.90;;;;;;5073132;28;19940;-80
2022/08/25 05:31:14;;;;;;;;;;;18.00;99.90;;;;;;5068304;28;19928;-82
2022/08/25 05:33:42;;;;;;;;;;;18.10;99.90;;;;;;5064728;28;19929;-82
2022/08/25 05:36:10;;;;;;;;;;;18.20;99.90;;;;;;5068971;28;19928;-82
2022/08/25 05:38:38;;;;;;;;;;;18.40;99.90;;;;;;5070952;28;19935;-82
2022/08/25 05:41:09;;;;;;;;;;;18.80;99.90;;;;;;5071255;28;19932;-82
2022/08/25 05:43:36;;;;;;;;;;;19.70;99.90;;;;;;5071335;28;19991;-83
2022/08/25 05:46:03;;;;;;;;;;;20.50;99.90;;;;;;5070779;28;20303;-82
2022/08/25 05:48:30;;;;;;;;;;;21.50;99.90;;;;;;5074747;28;19932;-82
2022/08/25 05:50:59;;;;;;;;;;;22.50;99.90;;;;;;5075646;28;19929;-83
2022/08/25 05:53:27;;;;;;;;;;;24.20;99.90;;;;;;5076608;28;19931;-82
2022/08/25 05:55:55;;;;;;;;;;;24.40;99.90;;;;;;5076971;28;19924;-81
2022/08/25 05:58:23;;;;;;;;;;;25.40;99.90;;;;;;5077666;28;19924;-82
2022/08/25 06:00:50;;;;;;;;;;;26.30;99.90;;;;;;5071491;28;20735;-80
2022/08/25 06:03:17;;;;;;;;;;;27.20;99.90;;;;;;5076848;28;19924;-79
2022/08/25 06:05:44;;;;;;;;;;;28.30;99.90;;;;;;5071792;28;20007;-81
2022/08/25 06:08:13;;;;;;;;;;;29.20;99.90;;;;;;5074319;28;19959;-81
2022/08/25 06:10:40;;;;;;;;;;;30.00;99.90;;;;;;5075635;28;19974;-81
2022/08/25 06:13:07;;;;;;;;;;;30.80;99.90;;;;;;5073397;28;19924;-80
2022/08/25 06:15:35;;;;;;;;;;;31.50;99.90;;;;;;5074108;28;19924;-81
2022/08/25 06:18:02;;;;;;;;;;;32.30;99.90;;;;;;5069729;28;19924;-81
2022/08/25 06:20:31;;;;;;;;;;;32.90;99.90;;;;;;5073861;28;19932;-79
2022/08/25 06:22:58;;;;;;;;;;;33.90;99.90;;;;;;5071021;28;20292;-79
2022/08/25 06:25:27;;;;;;;;;;;34.00;99.90;;;;;;5076606;28;19925;-80
2022/08/25 06:27:54;;;;;;;;;;;34.50;99.50;;;;;;5077366;28;20369;-80
2022/08/25 06:30:22;;;;;;;;;;;35.10;97.90;;;;;;5074594;28;19964;-80
2022/08/25 06:32:49;;;;;;;;;;;36.10;94.70;;;;;;5074266;28;19928;-80
2022/08/25 06:35:18;;;;;;;;;;;36.10;94.60;;;;;;5074858;28;19940;-80
2022/08/25 06:37:45;;;;;;;;;;;36.60;92.90;;;;;;5068930;28;19924;-80
2022/08/25 06:40:13;;;;;;;;;;;37.10;91.50;;;;;;5076054;28;19985;-80
2022/08/25 06:42:41;;;;;;;;;;;37.60;90.10;;;;;;5070077;28;19936;-80
2022/08/25 06:45:09;;;;;;;;;;;38.10;87.80;;;;;;5073954;28;19983;-81
2022/08/25 06:47:35;;;;;;;;;;;38.50;84.80;;;;;;5076642;28;20335;-80
2022/08/25 06:50:03;;;;;;;;;;;38.80;82.20;;;;;;5079095;28;19924;-82
2022/08/25 06:52:30;;;;;;;;;;;39.00;79.30;;;;;;5093847;28;19924;-83
2022/08/25 06:54:57;;;;;;;;;;;39.30;77.40;;;;;;5079719;28;19920;-82
2022/08/25 06:57:24;;;;;;;;;;;39.50;75.50;;;;;;5079672;28;19931;-82
2022/08/25 06:59:53;;;;;;;;;;;39.70;74.00;;;;;;5080316;28;19924;-83
2022/08/25 07:02:20;;;;;;;;;;;40.00;73.70;;;;;;5076894;28;19916;-83
2022/08/25 07:04:47;;;;;;;;;;;40.20;71.10;;;;;;5077819;28;19920;-83
2022/08/25 07:07:16;;;;;;;;;;;40.40;69.60;;;;;;5083159;28;19947;-84
2022/08/25 07:09:44;;;;;;;;;;;40.40;68.70;;;;;;5086040;28;19920;-82
2022/08/25 07:12:13;;;;;;;;;;;40.50;67.70;;;;;;5083712;28;19921;-83
2022/08/25 07:14:40;;;;;;;;;;;40.40;65.90;;;;;;5087131;28;19970;-82
2022/08/25 07:17:09;;;;;;;;;;;40.20;63.20;;;;;;5088026;28;19920;-81
2022/08/25 07:19:37;;;;;;;;;;;39.80;63.70;;;;;;5088619;28;19935;-82
2022/08/25 07:22:05;;;;;;;;;;;39.60;64.40;;;;;;5079279;28;20015;-83
2022/08/25 07:24:32;;;;;;;;;;;39.60;64.80;;;;;;5082944;28;19932;-84
2022/08/25 07:26:59;;;;;;;;;;;39.60;64.00;;;;;;5082630;28;20019;-83
2022/08/25 07:29:28;;;;;;;;;;;39.70;63.50;;;;;;5082661;28;19966;-83
2022/08/25 07:31:56;;;;;;;;;;;39.60;62.10;;;;;;5080599;28;19947;-83
2022/08/25 07:37:10;;;;;;;;;;;39.60;62.40;;;;;;5083618;28;20276;-84
2022/08/25 07:39:37;;;;;;;;;;;39.60;61.40;;;;;;5083806;28;19992;-83
2022/08/25 07:42:05;;;;;;;;;;;39.50;60.30;;;;;;5081329;28;19924;-82
2022/08/25 07:44:32;;;;;;;;;;;39.30;60.90;;;;;;5082469;28;19917;-81
2022/08/25 07:46:59;;;;;;;;;;;39.00;59.90;;;;;;5079944;28;19916;-83
2022/08/25 07:49:29;;;;;;;;;;;38.60;60.40;;;;;;5084258;28;19926;-82
2022/08/25 07:51:57;;;;;;;;;;;38.40;60.20;;;;;;5084524;28;19994;-82
2022/08/25 07:54:26;;;;;;;;;;;38.20;60.30;;;;;;5084899;28;19920;-82
2022/08/25 07:56:56;;;;;;;;;;;37.90;60.90;;;;;;5083844;28;20555;-82
2022/08/25 07:59:23;;;;;;;;;;;37.80;61.40;;;;;;5083314;28;19979;-82
2022/08/25 08:01:50;;;;;;;;;;;37.80;61.90;;;;;;5087800;28;19920;-83
2022/08/25 08:04:18;;;;;;;;;;;37.70;60.90;;;;;;5085780;28;19928;-83
2022/08/25 08:06:47;;;;;;;;;;;37.70;61.60;;;;;;5088914;28;19924;-82
2022/08/25 08:09:15;;;;;;;;;;;37.90;61.60;;;;;;5086841;28;19959;-81
2022/08/25 08:11:43;;;;;;;;;;;38.00;60.90;;;;;;5082111;28;19918;-82
2022/08/25 08:14:12;;;;;;;;;;;38.10;61.40;;;;;;5075453;28;19924;-76
2022/08/25 08:16:39;;;;;;;;;;;38.10;60.80;;;;;;5069649;28;19920;-77
2022/08/25 08:19:06;;;;;;;;;;;38.90;60.90;;;;;;5068638;28;19931;-75
2022/08/25 08:21:35;;;;;;;;;;;37.80;59.50;;;;;;5069060;28;20354;-76
2022/08/25 08:24:04;;;;;;;;;;;37.40;61.00;;;;;;5066332;28;19932;-75
2022/08/25 08:26:31;;;;;;;;;;;37.20;61.00;;;;;;5068749;28;19920;-76
2022/08/25 08:29:00;;;;;;;;;;;37.10;61.50;;;;;;5070782;28;19931;-80
2022/08/25 08:31:28;;;;;;;;;;;37.30;61.70;;;;;;5072762;28;20383;-80
2022/08/25 08:33:56;;;;;;;;;;;37.40;60.50;;;;;;5073646;28;19963;-80
2022/08/25 08:36:23;;;;;;;;;;;37.50;60.90;;;;;;5064087;28;20387;-77
2022/08/25 08:38:50;;;;;;;;;;;37.60;60.70;;;;;;5070371;28;20029;-77
2022/08/25 08:44:15;;;;;;;;;;;37.50;59.20;;;;;;5072161;28;19950;-76
2022/08/25 08:46:49;;;;;;;;;;;37.40;59.80;;;;;;5066668;28;19924;-76
2022/08/25 08:49:22;;;;;;;;;;;37.40;60.10;;;;;;5064566;28;20450;-76
2022/08/25 08:51:53;;;;;;;;;;;37.40;59.70;;;;;;5061009;28;19934;-76
2022/08/25 08:54:23;;;;;;;;;;;37.40;59.60;;;;;;5064243;28;19932;-76
2022/08/25 08:56:56;;;;;;;;;;;37.30;58.30;;;;;;5062888;28;19924;-76
2022/08/25 08:59:24;;;;;;;;;;;37.00;57.70;;;;;;5066975;28;20007;-76
2022/08/25 09:01:57;;;;;;;;;;;36.70;58.20;;;;;;5058945;28;20388;-77
2022/08/25 09:04:27;;;;;;;;;;;36.50;58.50;;;;;;5065397;28;19943;-77
2022/08/25 09:06:56;;;;;;;;;;;36.30;58.30;;;;;;5064521;28;19924;-78
2022/08/25 09:09:25;;;;;;;;;;;36.20;58.90;;;;;;5067710;28;19920;-77
2022/08/25 09:11:59;;;;;;;;;;;36.10;59.30;;;;;;5068632;28;19945;-78
2022/08/25 09:14:38;;;;;;;;;;;35.90;59.10;;;;;;5066815;28;20238;-77
2022/08/25 09:17:06;;;;;;;;;;;35.80;59.50;;;;;;5067332;28;19937;-77
2022/08/25 09:19:42;;;;;;;;;;;35.80;59.50;;;;;;5080404;28;19981;-77
2022/08/25 09:22:15;;;;;;;;;;;35.40;60.10;;;;;;5072906;28;19925;-77
2022/08/25 09:24:48;;;;;;;;;;;35.20;60.00;;;;;;5084749;28;19920;-77
2022/08/25 09:27:22;;;;;;;;;;;35.10;61.00;;;;;;5067821;28;19931;-77
2022/08/25 09:29:57;;;;;;;;;;;35.00;60.70;;;;;;5068249;28;20414;-79
2022/08/25 09:32:25;;;;;;;;;;;34.80;61.20;;;;;;5076878;28;19924;-77
2022/08/25 09:34:54;;;;;;;;;;;34.60;60.90;;;;;;5066887;28;19920;-79
2022/08/25 09:37:22;;;;;;;;;;;34.50;61.80;;;;;;5067708;28;19956;-75
2022/08/25 09:39:49;;;;;;;;;;;34.40;61.60;;;;;;5070345;28;19951;-78
2022/08/25 09:42:18;;;;;;;;;;;34.20;61.50;;;;;;5067884;28;19928;-77
2022/08/25 09:44:47;;;;;;;;;;;33.80;61.90;;;;;;5068692;28;19977;-77
2022/08/25 09:47:19;;;;;;;;;;;33.40;63.00;;;;;;5065876;28;19932;-77
2022/08/25 09:49:48;;;;;;;;;;;32.90;63.90;;;;;;5067961;28;19926;-78
2022/08/25 09:52:24;;;;;;;;;;;32.40;64.30;;;;;;5084086;28;19959;-78
2022/08/25 09:54:51;;;;;;;;;;;32.00;64.10;;;;;;5064006;28;19964;-78
2022/08/25 09:57:29;;;;;;;;;;;31.70;65.70;;;;;;5069421;28;19928;-78
2022/08/25 09:59:57;;;;;;;;;;;31.40;66.10;;;;;;5060469;28;19928;-79
2022/08/25 10:02:25;;;;;;;;;;;31.20;67.00;;;;;;5063546;28;19928;-78
2022/08/25 10:04:52;;;;;;;;;;;31.10;67.70;;;;;;5071024;28;20376;-77
2022/08/25 10:07:24;;;;;;;;;;;31.10;68.00;;;;;;5066468;28;19928;-79
2022/08/25 10:09:52;;;;;;;;;;;31.10;68.20;;;;;;5071655;28;19931;-78
2022/08/25 10:12:21;;;;;;;;;;;31.30;68.00;;;;;;5070980;28;19924;-78
2022/08/25 10:14:50;;;;;;;;;;;31.00;68.10;;;;;;5071876;28;19990;-78
2022/08/25 10:17:23;;;;;;;;;;;31.00;68.30;;;;;;5074315;28;19924;-79
2022/08/25 10:19:50;;;;;;;;;;;31.00;68.20;;;;;;5069820;28;19960;-79
2022/08/25 10:22:23;;;;;;;;;;;31.00;67.70;;;;;;5070057;28;19920;-79
2022/08/25 10:24:50;;;;;;;;;;;31.00;68.30;;;;;;5067149;28;19924;-79
2022/08/25 10:27:22;;;;;;;;;;;31.10;68.40;;;;;;5072423;28;19921;-79
2022/08/25 10:29:55;;;;;;;;;;;31.20;68.00;;;;;;5066282;28;19925;-79
2022/08/25 10:32:26;;;;;;;;;;;31.20;68.00;;;;;;5071669;28;19925;-79
2022/08/25 10:34:54;;;;;;;;;;;31.30;67.90;;;;;;5073056;28;20346;-79
2022/08/25 10:37:27;;;;;;;;;;;31.40;67.80;;;;;;5075218;28;20406;-79
2022/08/25 10:39:58;;;;;;;;;;;31.50;68.00;;;;;;5083752;28;19931;-80
2022/08/25 10:42:32;;;;;;;;;;;31.70;67.50;;;;;;5070745;28;19920;-80
2022/08/25 10:48:12;;;;;;;;;;;31.80;67.20;;;;;;5083602;28;19925;-81
2022/08/25 10:50:40;;;;;;;;;;;32.00;66.80;;;;;;5071595;28;19968;-79
2022/08/25 10:53:12;;;;;;;;;;;32.00;65.70;;;;;;5072653;28;19920;-80
2022/08/25 10:55:43;;;;;;;;;;;32.00;66.70;;;;;;5073210;28;19924;-79
2022/08/25 10:58:14;;;;;;;;;;;32.20;66.70;;;;;;5069414;28;19928;-79
2022/08/25 11:00:48;;;;;;;;;;;32.10;66.40;;;;;;5070008;28;20399;-79
2022/08/25 11:03:19;;;;;;;;;;;32.20;66.70;;;;;;5071590;28;20611;-82
2022/08/25 11:05:49;;;;;;;;;;;32.40;66.50;;;;;;5086613;28;20569;-80
2022/08/25 11:08:18;;;;;;;;;;;32.60;66.70;;;;;;5070217;28;20457;-79
2022/08/25 11:10:47;;;;;;;;;;;32.70;65.80;;;;;;5069722;28;20357;-78
2022/08/25 11:13:17;;;;;;;;;;;32.70;65.80;;;;;;5067296;28;19920;-78
2022/08/25 11:15:50;;;;;;;;;;;32.80;65.30;;;;;;5068956;28;19924;-78
2022/08/25 11:18:19;;;;;;;;;;;32.90;64.40;;;;;;5074101;28;19924;-78
2022/08/25 11:20:49;;;;;;;;;;;32.80;64.00;;;;;;5070746;28;19974;-77
2022/08/25 11:23:25;;;;;;;;;;;32.60;63.60;;;;;;5084070;28;20027;-78
2022/08/25 11:25:53;;;;;;;;;;;32.70;64.10;;;;;;5068505;28;19925;-78
2022/08/25 11:28:23;;;;;;;;;;;32.70;63.90;;;;;;5067486;28;19924;-81
2022/08/25 11:30:56;;;;;;;;;;;32.80;63.90;;;;;;5066723;28;19932;-80
2022/08/25 11:33:24;;;;;;;;;;;32.80;64.40;;;;;;5073798;28;19950;-78
2022/08/25 11:35:54;;;;;;;;;;;32.80;64.60;;;;;;5067389;28;19924;-79
2022/08/25 11:38:33;;;;;;;;;;;33.10;64.30;;;;;;5063556;28;19932;-78
2022/08/25 11:41:05;;;;;;;;;;;33.30;63.80;;;;;;5064867;28;20015;-81
2022/08/25 11:43:46;;;;;;;;;;;33.40;63.30;;;;;;5073658;28;19924;-78
2022/08/25 11:46:20;;;;;;;;;;;33.60;63.30;;;;;;5067975;28;19986;-79
2022/08/25 11:48:55;;;;;;;;;;;33.90;62.30;;;;;;5068352;28;19924;-78
2022/08/25 11:51:33;;;;;;;;;;;33.90;62.10;;;;;;5068015;28;19920;-80
2022/08/25 11:54:23;;;;;;;;;;;34.00;61.40;;;;;;5068422;28;20350;-80
2022/08/25 11:56:56;;;;;;;;;;;34.00;61.60;;;;;;5081828;28;19924;-78
2022/08/25 11:59:42;;;;;;;;;;;34.10;61.90;;;;;;5080576;28;19973;-78
2022/08/25 12:02:27;;;;;;;;;;;35.70;63.00;;;;;;5057530;28;19928;-78
2022/08/25 12:04:56;;;;;;;;;;;34.30;61.70;;;;;;5076325;28;20417;-77
2022/08/25 12:07:30;;;;;;;;;;;34.00;60.00;;;;;;5066472;28;20329;-77
2022/08/25 12:10:15;;;;;;;;;;;34.40;60.90;;;;;;5065086;28;19924;-78
2022/08/25 12:13:00;;;;;;;;;;;34.50;60.60;;;;;;5057095;28;19931;-78
2022/08/25 12:15:33;;;;;;;;;;;34.40;60.40;;;;;;5074291;28;19928;-78
2022/08/25 12:18:13;;;;;;;;;;;34.40;60.60;;;;;;5066107;28;20062;-79
2022/08/25 12:21:00;;;;;;;;;;;34.50;61.00;;;;;;5056956;28;19935;-79
2022/08/25 12:23:27;;;;;;;;;;;34.60;60.40;;;;;;5068248;28;20407;-78
2022/08/25 12:25:57;;;;;;;;;;;34.60;60.10;;;;;;5066873;28;20555;-77
2022/08/25 12:28:39;;;;;;;;;;;34.60;59.90;;;;;;5068637;28;19950;-79
2022/08/25 12:31:09;;;;;;;;;;;34.60;59.90;;;;;;5070246;28;19932;-77
2022/08/25 12:33:41;;;;;;;;;;;34.70;59.80;;;;;;5061749;28;19932;-77
2022/08/25 12:36:10;;;;;;;;;;;34.70;59.60;;;;;;5067399;28;19924;-77
2022/08/25 12:38:41;;;;;;;;;;;34.80;59.70;;;;;;5066615;28;20023;-78
2022/08/25 12:41:09;;;;;;;;;;;34.90;59.10;;;;;;5060461;28;19924;-78
2022/08/25 12:43:38;;;;;;;;;;;35.10;59.00;;;;;;5069429;28;19924;-79
2022/08/25 12:46:25;;;;;;;;;;;35.20;58.00;;;;;;5057469;28;19975;-77
2022/08/25 12:48:57;;;;;;;;;;;35.20;57.60;;;;;;5067889;28;19956;-82
2022/08/25 12:51:24;;;;;;;;;;;35.20;57.70;;;;;;5082722;28;19927;-78
2022/08/25 12:53:53;;;;;;;;;;;35.20;57.20;;;;;;5066755;28;19920;-78
2022/08/25 12:56:23;;;;;;;;;;;35.20;57.40;;;;;;5058978;28;20338;-78
2022/08/25 12:58:54;;;;;;;;;;;35.40;57.50;;;;;;5063556;28;19935;-79
2022/08/25 13:01:27;;;;;;;;;;;35.60;57.60;;;;;;5069034;28;19959;-78
2022/08/25 13:04:10;;;;;;;;;;;35.70;57.70;;;;;;5049361;28;20377;-78
2022/08/25 13:06:45;;;;;;;;;;;35.90;57.60;;;;;;5064511;28;20332;-79
2022/08/25 13:09:32;;;;;;;;;;;36.10;57.40;;;;;;5066252;28;19996;-80
2022/08/25 13:12:02;;;;;;;;;;;36.10;56.20;;;;;;5067073;28;19974;-79
2022/08/25 13:14:33;;;;;;;;;;;36.00;55.70;;;;;;5065236;28;19924;-79
2022/08/25 13:17:01;;;;;;;;;;;35.90;56.00;;;;;;5060504;28;20408;-79
2022/08/25 13:19:30;;;;;;;;;;;35.60;55.40;;;;;;5054751;28;20017;-77
2022/08/25 13:21:59;;;;;;;;;;;35.50;56.00;;;;;;5065475;28;19959;-79
2022/08/25 13:24:27;;;;;;;;;;;35.50;56.50;;;;;;5065051;28;20346;-79
2022/08/25 13:26:54;;;;;;;;;;;35.60;56.60;;;;;;5066939;28;20342;-77
2022/08/25 13:29:24;;;;;;;;;;;35.80;56.40;;;;;;5066069;28;19978;-79
2022/08/25 13:31:52;;;;;;;;;;;35.80;56.50;;;;;;5079094;28;19930;-77
2022/08/25 13:34:21;;;;;;;;;;;35.90;56.40;;;;;;5073890;28;19940;-77
2022/08/25 13:39:37;;;;;;;;;;;36.20;55.90;;;;;;5053486;28;19932;-77
2022/08/25 13:42:06;;;;;;;;;;;36.30;55.50;;;;;;5067814;28;19956;-80
2022/08/25 13:44:37;;;;;;;;;;;36.40;55.70;;;;;;5065970;28;19920;-77
2022/08/25 13:47:06;;;;;;;;;;;36.50;55.40;;;;;;5077470;28;20752;-77
2022/08/25 13:49:33;;;;;;;;;;;36.80;54.80;;;;;;5059363;28;19925;-77
2022/08/25 13:52:02;;;;;;;;;;;36.90;54.50;;;;;;5078674;28;20388;-77
2022/08/25 13:54:31;;;;;;;;;;;37.00;54.20;;;;;;5060296;28;20062;-77
2022/08/25 13:57:07;;;;;;;;;;;37.10;53.10;;;;;;5064333;28;19928;-77
2022/08/25 13:59:37;;;;;;;;;;;37.00;53.60;;;;;;5063220;28;19931;-80
2022/08/25 14:02:05;;;;;;;;;;;36.90;53.40;;;;;;5083546;28;20549;-78
2022/08/25 14:04:44;;;;;;;;;;;36.70;53.80;;;;;;5061759;28;19924;-78
2022/08/25 14:07:25;;;;;;;;;;;36.60;54.20;;;;;;5067463;28;20045;-79
2022/08/25 14:09:53;;;;;;;;;;;36.70;54.20;;;;;;5054492;28;19931;-80
2022/08/25 14:12:30;;;;;;;;;;;36.70;54.40;;;;;;5069248;28;19924;-78
2022/08/25 14:14:58;;;;;;;;;;;36.80;54.20;;;;;;5070986;28;20579;-79
2022/08/25 14:17:28;;;;;;;;;;;36.80;53.90;;;;;;5078092;28;20439;-78
2022/08/25 14:19:56;;;;;;;;;;;36.90;53.70;;;;;;5055997;28;19924;-78
2022/08/25 14:22:25;;;;;;;;;;;36.90;53.70;;;;;;5051119;28;19931;-80
2022/08/25 14:24:54;;;;;;;;;;;36.90;52.80;;;;;;5413082;22;19930;-77
2022/08/25 14:27:21;;;;;;;;;;;36.90;53.10;;;;;;5053319;28;19920;-77
2022/08/25 14:29:48;;;;;;;;;;;36.90;52.80;;;;;;5071526;28;19920;-76
2022/08/25 14:32:16;;;;;;;;;;;36.80;52.80;;;;;;5045332;28;20429;-78
2022/08/25 14:34:43;;;;;;;;;;;36.80;53.00;;;;;;5048253;28;19932;-78
2022/08/25 14:37:13;;;;;;;;;;;36.90;52.80;;;;;;5045173;28;19924;-79
2022/08/25 14:39:41;;;;;;;;;;;36.90;52.80;;;;;;5045321;28;19946;-77
2022/08/25 14:42:08;;;;;;;;;;;37.00;52.70;;;;;;5065168;28;20001;-77
2022/08/25 14:44:36;;;;;;;;;;;37.10;52.70;;;;;;5062283;28;19925;-77
2022/08/25 14:47:05;;;;;;;;;;;37.10;52.40;;;;;;5047454;28;20392;-77
2022/08/25 14:49:34;;;;;;;;;;;37.10;52.70;;;;;;5040237;28;19931;-81
2022/08/25 14:52:04;;;;;;;;;;;37.20;52.20;;;;;;5039095;28;19993;-78